Time;durP1;ratioP1;P1;durP2;ratioP2;P2;SDS_P1;SDS_P2;PMS_P1;PMS_P2;Temp;Humidity;BMP_temperature;BMP_pressure;BME280_temperature;BME280_humidity;BME280_pressure;Samples;Min_cycle;Max_cycle;Signal;HPM_P1;HPM_P2
2021/12/19 09:02:54;;;;;;;9.37;4.33;;;;;;;17.48;47.40;101784.13;10161199;27;43706;-71
2021/12/19 09:07:46;;;;;;;11.85;6.07;;;;;;;17.43;46.32;101772.00;10122300;28;66273;-72
2021/12/19 09:12:38;;;;;;;5.78;5.18;;;;;;;17.72;45.53;101758.84;10133766;27;66317;-71
2021/12/19 09:17:30;;;;;;;7.85;4.03;;;;;;;17.99;45.16;101756.06;10135871;27;65521;-70
2021/12/19 09:22:24;;;;;;;6.80;3.83;;;;;;;17.93;45.44;101748.88;10127595;28;66396;-71
2021/12/19 09:27:17;;;;;;;9.15;4.00;;;;;;;17.97;45.45;101755.50;10119389;27;67973;-72
2021/12/19 09:32:09;;;;;;;11.00;4.13;;;;;;;17.87;45.28;101747.16;10126988;28;65707;-70
2021/12/19 09:37:01;;;;;;;7.78;3.83;;;;;;;18.00;45.11;101756.88;10114284;28;66319;-71
2021/12/19 09:41:56;;;;;;;6.88;3.33;;;;;;;17.97;45.10;101755.50;10117494;28;66509;-71
2021/12/19 09:46:49;;;;;;;8.18;3.40;;;;;;;17.99;45.08;101745.09;10116734;28;66320;-71
2021/12/19 09:51:41;;;;;;;6.43;2.80;;;;;;;17.99;45.32;101736.03;10116581;28;65881;-70
2021/12/19 09:56:34;;;;;;;5.65;3.08;;;;;;;17.97;45.30;101730.78;10117541;28;66341;-70
2021/12/19 10:01:27;;;;;;;6.68;2.88;;;;;;;18.01;45.33;101739.31;10115277;28;66295;-71
2021/12/19 10:06:20;;;;;;;5.90;2.80;;;;;;;18.05;45.20;101718.50;10117403;28;65699;-70
2021/12/19 10:11:32;;;;;;;7.32;3.13;;;;;;;18.08;45.16;101709.75;10105870;28;65396;-71
2021/12/19 10:16:25;;;;;;;8.30;2.75;;;;;;;18.05;45.25;101697.38;10090148;28;65532;-71
2021/12/19 10:21:20;;;;;;;5.65;2.78;;;;;;;18.09;45.36;101694.91;10089243;28;66607;-71
2021/12/19 10:26:12;;;;;;;7.18;3.35;;;;;;;18.10;45.24;101693.81;10089712;28;66519;-71
2021/12/19 10:31:04;;;;;;;6.65;2.88;;;;;;;18.11;45.28;101679.81;10089443;28;65627;-71
2021/12/19 10:35:57;;;;;;;7.65;2.78;;;;;;;18.12;45.38;101675.16;10087597;28;65482;-71
2021/12/19 10:40:52;;;;;;;5.40;2.70;;;;;;;18.08;45.37;101660.34;10087067;28;65619;-70
2021/12/19 10:45:46;;;;;;;4.80;2.90;;;;;;;18.13;45.33;101661.19;10089144;28;65350;-71
2021/12/19 10:50:42;;;;;;;7.50;2.92;;;;;;;18.12;45.49;101653.22;10089009;28;67041;-70
2021/12/19 10:55:35;;;;;;;6.78;2.80;;;;;;;18.12;45.38;101648.53;10088359;28;66447;-69
2021/12/19 11:00:29;;;;;;;7.68;2.90;;;;;;;18.10;45.48;101637.00;10086995;28;65676;-71
2021/12/19 11:05:33;;;;;;;4.80;3.10;;;;;;;18.11;45.45;101629.59;10086581;28;66388;-71
2021/12/19 11:10:28;;;;;;;5.20;3.05;;;;;;;18.10;45.35;101623.28;10087343;28;66736;-70
2021/12/19 11:15:20;;;;;;;4.15;2.88;;;;;;;18.13;45.48;101606.28;10087217;28;66361;-70
2021/12/19 11:20:15;;;;;;;4.30;2.53;;;;;;;18.15;45.38;101598.63;10086838;28;66206;-71
2021/12/19 11:25:08;;;;;;;4.38;2.50;;;;;;;18.09;45.66;101585.94;10085522;28;65685;-70
2021/12/19 11:30:00;;;;;;;4.75;2.72;;;;;;;18.10;45.66;101582.09;10087280;28;66327;-71
2021/12/19 11:34:58;;;;;;;5.75;3.17;;;;;;;18.14;45.43;101574.19;10086605;28;65303;-70
2021/12/19 11:39:52;;;;;;;5.97;3.15;;;;;;;18.15;45.65;101559.38;10095963;28;65709;-71
2021/12/19 11:45:02;;;;;;;4.80;2.67;;;;;;;18.25;45.64;101542.91;10085656;28;66228;-77
2021/12/19 11:50:10;;;;;;;3.72;2.72;;;;;;;18.32;45.58;101539.91;10088741;28;66099;-75
2021/12/19 11:55:35;;;;;;;6.65;2.78;;;;;;;18.41;45.60;101530.03;10103095;28;65263;-76
2021/12/19 12:00:28;;;;;;;6.82;2.67;;;;;;;18.30;45.61;101520.97;10001760;28;66362;-71
2021/12/19 12:05:22;;;;;;;5.20;3.38;;;;;;;18.31;45.61;101519.84;10094291;28;65595;-70
2021/12/19 12:10:14;;;;;;;4.50;3.15;;;;;;;18.40;45.30;101506.44;10087726;28;65827;-72
2021/12/19 12:15:09;;;;;;;5.03;3.40;;;;;;;18.31;45.73;101502.56;10086722;28;65758;-72
2021/12/19 12:20:16;;;;;;;5.35;3.28;;;;;;;18.52;45.44;101496.84;10108262;28;66352;-75
2021/12/19 12:25:15;;;;;;;6.45;3.17;;;;;;;18.65;45.48;101497.44;10089298;28;65409;-74
2021/12/19 12:30:10;;;;;;;4.18;3.03;;;;;;;18.69;45.56;101498.50;10085942;28;66350;-75
2021/12/19 12:35:03;;;;;;;6.47;3.17;;;;;;;18.68;45.53;101489.44;10086909;28;65492;-77
2021/12/19 12:40:23;;;;;;;3.95;3.00;;;;;;;18.74;45.72;101488.38;10108831;28;65573;-77
2021/12/19 12:45:16;;;;;;;8.35;3.50;;;;;;;18.64;45.92;101473.81;10090010;28;66468;-75
2021/12/19 12:50:09;;;;;;;3.85;3.05;;;;;;;18.88;45.46;101469.41;10060070;28;65458;-74
2021/12/19 12:55:03;;;;;;;6.55;3.00;;;;;;;18.90;45.59;101464.44;10048258;28;65338;-70
2021/12/19 12:59:55;;;;;;;4.72;2.72;;;;;;;18.92;45.83;101452.06;10060548;28;66755;-70
2021/12/19 13:04:49;;;;;;;6.00;2.97;;;;;;;18.98;45.46;101448.22;10072484;28;65487;-70
2021/12/19 13:09:42;;;;;;;4.20;3.38;;;;;;;19.10;45.25;101444.34;10067912;28;66207;-70
2021/12/19 13:14:35;;;;;;;5.65;3.45;;;;;;;19.16;45.26;101440.47;10059108;28;66140;-71
2021/12/19 13:19:41;;;;;;;4.75;3.03;;;;;;;19.11;45.24;101440.50;10066096;28;66331;-72
2021/12/19 13:24:35;;;;;;;4.75;3.17;;;;;;;18.98;45.72;101431.72;10071702;28;65636;-70
2021/12/19 13:29:29;;;;;;;5.00;3.55;;;;;;;19.07;45.37;101431.97;10050200;28;66385;-70
2021/12/19 13:34:21;;;;;;;6.75;3.00;;;;;;;19.00;45.74;101423.19;10073412;28;66866;-70
2021/12/19 13:39:19;;;;;;;7.50;4.00;;;;;;;18.79;46.04;101416.09;10071756;28;66298;-71
2021/12/19 13:44:13;;;;;;;7.13;4.38;;;;;;;18.77;46.06;101407.31;10085782;28;65992;-71
2021/12/19 13:49:05;;;;;;;6.88;4.03;;;;;;;18.79;46.03;101416.09;10106732;28;66441;-72
2021/12/19 13:53:58;;;;;;;7.57;4.65;;;;;;;18.69;45.95;101405.94;10115538;28;66238;-70
2021/12/19 13:58:52;;;;;;;8.93;4.60;;;;;;;18.70;46.03;101398.53;10100341;28;66416;-70
2021/12/19 14:03:47;;;;;;;8.98;4.72;;;;;;;18.65;46.03;101396.63;10099895;28;66441;-71
2021/12/19 14:08:40;;;;;;;6.15;4.60;;;;;;;18.67;45.99;101394.44;10109128;28;66835;-71
2021/12/19 14:13:33;;;;;;;6.55;5.03;;;;;;;18.66;45.91;101391.94;10098757;28;66558;-72
2021/12/19 14:18:26;;;;;;;9.35;4.97;;;;;;;18.63;45.96;101390.56;10091550;28;66368;-70
2021/12/19 14:23:20;;;;;;;5.95;4.47;;;;;;;18.60;45.97;101389.19;10088983;28;66295;-71
2021/12/19 14:28:21;;;;;;;10.50;4.82;;;;;;;18.59;45.92;101390.31;10081514;28;66090;-71
2021/12/19 14:33:18;;;;;;;6.82;4.80;;;;;;;18.59;46.18;101395.81;10068290;28;66366;-71
2021/12/19 14:38:14;;;;;;;7.78;5.10;;;;;;;18.59;45.95;101393.06;10088783;28;65777;-72
2021/12/19 14:43:08;;;;;;;5.55;4.35;;;;;;;18.55;46.02;101400.16;10093536;28;65531;-72
2021/12/19 14:48:02;;;;;;;7.80;4.70;;;;;;;18.57;45.98;101399.91;10105857;28;65530;-70
2021/12/19 14:53:14;;;;;;;7.93;4.78;;;;;;;18.52;46.02;101397.16;10095596;28;66119;-71
2021/12/19 14:58:06;;;;;;;7.63;5.00;;;;;;;18.54;46.06;101394.94;10093320;28;66570;-71
2021/12/19 15:03:00;;;;;;;7.28;4.88;;;;;;;18.56;45.97;101390.03;10094518;28;65629;-69
2021/12/19 15:07:53;;;;;;;5.50;4.50;;;;;;;18.61;45.93;101412.00;10088511;28;66081;-70
2021/12/19 15:12:45;;;;;;;6.20;4.78;;;;;;;18.55;46.14;101402.91;10088132;28;65972;-71
2021/12/19 15:17:37;;;;;;;6.28;4.50;;;;;;;18.54;46.15;101397.69;10096723;28;66930;-70
2021/12/19 15:22:31;;;;;;;7.03;4.57;;;;;;;18.54;46.22;101395.75;10094895;28;65583;-71
2021/12/19 15:27:23;;;;;;;5.57;4.78;;;;;;;18.53;46.17;101385.03;10087297;28;66374;-72
2021/12/19 15:32:15;;;;;;;5.25;4.35;;;;;;;18.53;46.17;101385.88;10103826;28;66158;-70
2021/12/19 15:37:07;;;;;;;5.35;4.63;;;;;;;18.54;46.11;101393.00;10088760;28;66032;-70
2021/12/19 15:42:01;;;;;;;5.55;4.05;;;;;;;18.53;46.03;101385.03;10082200;28;66874;-70
2021/12/19 15:46:53;;;;;;;5.88;4.55;;;;;;;18.53;46.08;101382.28;10081225;28;67077;-69
2021/12/19 15:51:45;;;;;;;6.28;4.28;;;;;;;18.50;46.16;101371.88;10083065;28;65902;-70
2021/12/19 15:56:37;;;;;;;5.70;4.50;;;;;;;18.51;46.02;101368.03;10087013;28;66345;-70
2021/12/19 16:01:31;;;;;;;5.97;4.43;;;;;;;18.52;46.02;101362.28;10080189;28;66141;-71
2021/12/19 16:06:24;;;;;;;12.35;7.82;;;;;;;18.50;46.13;101356.22;10085627;28;66417;-71
2021/12/19 16:11:17;;;;;;;21.10;12.35;;;;;;;18.48;46.18;101365.84;10086840;28;66411;-74
2021/12/19 16:16:09;;;;;;;24.77;13.77;;;;;;;18.52;46.00;101361.47;10086476;28;67230;-76
2021/12/19 16:21:03;;;;;;;24.75;15.07;;;;;;;18.51;46.02;101359.81;10086187;28;66078;-77
2021/12/19 16:25:55;;;;;;;26.02;15.13;;;;;;;18.50;46.02;101352.66;10098155;28;66729;-76
2021/12/19 16:30:48;;;;;;;24.85;13.95;;;;;;;18.48;46.03;101361.16;10088581;28;65619;-75
2021/12/19 16:35:41;;;;;;;33.70;19.48;;;;;;;18.53;45.88;101365.81;10099481;28;66802;-74
2021/12/19 16:40:38;;;;;;;43.88;22.80;;;;;;;18.54;45.97;101357.31;10083951;28;65929;-75
2021/12/19 16:45:30;;;;;;;47.47;26.83;;;;;;;18.53;46.02;101352.09;10082287;28;66372;-75
2021/12/19 16:50:22;;;;;;;51.45;28.05;;;;;;;18.50;46.05;101356.22;10084483;28;66111;-76
2021/12/19 16:55:15;;;;;;;48.25;27.17;;;;;;;18.52;45.93;101348.56;10084147;28;65218;-75
2021/12/19 17:00:11;;;;;;;48.28;27.73;;;;;;;18.53;45.91;101352.91;10084818;28;66362;-75
2021/12/19 17:05:04;;;;;;;48.95;26.98;;;;;;;18.50;45.96;101347.16;10084012;28;66419;-75
2021/12/19 17:09:56;;;;;;;41.20;25.20;;;;;;;18.56;45.84;101341.41;10089183;28;66220;-75
2021/12/19 17:14:49;;;;;;;38.70;23.77;;;;;;;18.58;45.81;101358.44;10105635;28;66391;-74
2021/12/19 17:19:44;;;;;;;38.35;23.55;;;;;;;18.64;45.78;101351.03;10087148;28;66695;-76
2021/12/19 17:24:37;;;;;;;37.88;23.10;;;;;;;18.60;45.80;101352.66;10125927;28;66276;-76
2021/12/19 17:29:29;;;;;;;44.50;22.50;;;;;;;18.55;45.90;101350.72;10099173;28;66532;-77
2021/12/19 17:34:22;;;;;;;34.90;20.17;;;;;;;18.59;45.87;101340.06;10094485;28;66397;-77
2021/12/19 17:39:21;;;;;;;36.30;20.00;;;;;;;18.60;45.74;101341.66;10106497;28;67064;-76
2021/12/19 17:44:13;;;;;;;32.30;19.38;;;;;;;18.63;45.79;101343.88;10106490;28;66114;-78
2021/12/19 17:49:08;;;;;;;32.20;19.40;;;;;;;18.65;45.64;101349.09;10106932;28;66280;-77
2021/12/19 17:54:00;;;;;;;31.67;18.10;;;;;;;18.67;45.69;101344.16;10105165;28;66473;-78
2021/12/19 17:58:55;;;;;;;29.23;16.73;;;;;;;18.67;45.61;101344.16;10104240;28;66801;-77
2021/12/19 18:03:56;;;;;;;27.42;17.45;;;;;;;18.60;45.77;101342.50;10107243;28;66304;-77
2021/12/19 18:08:49;;;;;;;29.10;16.90;;;;;;;18.63;45.73;101352.13;10094379;28;66245;-77
2021/12/19 18:13:43;;;;;;;26.35;16.10;;;;;;;18.67;45.70;101352.41;10092736;28;67272;-77
2021/12/19 18:18:38;;;;;;;25.02;15.70;;;;;;;18.65;45.70;101349.09;10088769;28;66443;-80
2021/12/19 18:23:31;;;;;;;23.52;15.90;;;;;;;18.63;45.83;101348.53;10103726;28;66595;-77
2021/12/19 18:28:25;;;;;;;25.35;15.50;;;;;;;18.64;45.72;101348.28;10126865;28;65768;-82
2021/12/19 18:33:19;;;;;;;24.90;15.48;;;;;;;18.65;45.64;101347.19;10113840;28;65630;-80
2021/12/19 18:38:16;;;;;;;23.75;14.68;;;;;;;18.63;45.68;101352.13;10123586;28;65456;-84
2021/12/19 18:43:14;;;;;;;21.50;13.95;;;;;;;18.69;45.43;101344.69;10106226;28;65703;-83
2021/12/19 18:48:16;;;;;;;18.27;13.02;;;;;;;18.63;45.62;101354.03;10105996;28;65574;-82
2021/12/19 18:53:16;;;;;;;18.92;12.32;;;;;;;18.63;45.79;101341.13;10126636;28;66365;-79
2021/12/19 18:58:15;;;;;;;21.00;12.57;;;;;;;18.61;45.61;101357.88;10112280;28;66850;-80
2021/12/19 19:03:19;;;;;;;16.25;11.88;;;;;;;18.59;45.50;101354.59;10088894;28;66405;-71
2021/12/19 19:08:13;;;;;;;21.75;12.57;;;;;;;18.64;45.58;101350.19;10094181;28;66267;-71
2021/12/19 19:13:06;;;;;;;19.85;11.55;;;;;;;18.61;45.72;101344.16;10105359;28;66130;-75
2021/12/19 19:18:01;;;;;;;17.33;10.52;;;;;;;18.63;45.47;101348.53;10100779;28;65494;-71
2021/12/19 19:22:55;;;;;;;18.75;11.20;;;;;;;18.63;45.47;101349.38;10092275;28;65687;-71
2021/12/19 19:27:48;;;;;;;16.83;10.85;;;;;;;18.67;45.43;101349.66;10087764;28;65452;-75
2021/12/19 19:32:42;;;;;;;21.10;11.88;;;;;;;18.63;45.46;101354.03;10085682;28;66318;-75
2021/12/19 19:37:44;;;;;;;17.65;10.25;;;;;;;18.65;45.41;101338.09;10086663;28;66465;-74
2021/12/19 19:42:56;;;;;;;15.32;10.35;;;;;;;18.63;45.31;101352.13;10087236;28;65761;-76
2021/12/19 19:53:02;;;;;;;15.10;9.60;;;;;;;18.66;45.64;101348.81;10091002;28;66469;-71
2021/12/19 19:57:56;;;;;;;15.35;9.93;;;;;;;18.60;45.58;101336.19;10085461;28;65592;-72
2021/12/19 20:02:49;;;;;;;13.63;8.95;;;;;;;18.67;45.23;101344.16;10119090;28;65497;-71
2021/12/19 20:07:42;;;;;;;13.77;9.30;;;;;;;18.65;45.47;101335.38;10090235;28;66459;-72
2021/12/19 20:12:37;;;;;;;13.05;8.80;;;;;;;18.66;45.35;101340.59;10106979;28;65540;-71
2021/12/19 20:17:32;;;;;;;13.07;8.48;;;;;;;18.69;45.20;101348.25;10085264;28;66467;-72
2021/12/19 20:22:25;;;;;;;15.52;8.77;;;;;;;18.63;45.45;101348.53;10083156;28;66015;-71
2021/12/19 20:27:19;;;;;;;14.02;8.77;;;;;;;18.66;45.44;101350.75;10104839;28;65432;-71
2021/12/19 20:32:14;;;;;;;10.82;7.97;;;;;;;18.65;45.36;101358.16;10100739;28;65602;-72
2021/12/19 20:37:08;;;;;;;11.98;7.97;;;;;;;18.79;45.27;101333.69;10086695;28;65470;-72
2021/12/19 20:42:01;;;;;;;10.60;8.00;;;;;;;18.80;45.29;101349.88;10102623;28;65621;-71
2021/12/19 20:46:54;;;;;;;14.10;7.38;;;;;;;18.81;45.26;101337.81;10102383;28;63707;-74
2021/12/19 20:51:50;;;;;;;11.32;7.78;;;;;;;18.82;45.36;101344.91;10069652;28;66360;-73
2021/12/19 20:56:44;;;;;;;11.50;7.03;;;;;;;18.88;45.40;101340.25;10096687;28;66346;-73
2021/12/19 21:01:38;;;;;;;8.88;6.75;;;;;;;18.89;45.66;101330.91;10082132;28;65655;-72
2021/12/19 21:06:32;;;;;;;8.30;6.78;;;;;;;18.91;45.68;101342.41;10081310;28;66362;-72
2021/12/19 21:11:30;;;;;;;10.18;6.95;;;;;;;18.93;45.70;101324.56;10117316;28;65216;-72
2021/12/19 21:21:36;;;;;;;9.50;6.78;;;;;;;18.95;45.73;101325.13;10092729;28;66804;-72
2021/12/19 21:26:30;;;;;;;8.32;6.00;;;;;;;18.93;45.78;101321.81;10085885;28;65368;-73
2021/12/19 21:31:26;;;;;;;10.02;6.53;;;;;;;18.90;45.98;101314.13;10099005;28;66426;-72
2021/12/19 21:41:31;;;;;;;7.50;5.75;;;;;;;19.06;46.41;101311.31;10081533;28;66546;-73
2021/12/19 21:46:25;;;;;;;18.25;5.65;;;;;;;19.16;46.58;101320.34;10088622;28;66166;-73
2021/12/19 21:51:19;;;;;;;11.75;5.82;;;;;;;19.18;46.63;101307.16;10089808;28;66237;-76
2021/12/19 21:56:12;;;;;;;12.27;5.63;;;;;;;19.25;46.66;101312.34;10110808;28;65471;-73
2021/12/19 22:01:06;;;;;;;12.27;5.60;;;;;;;19.31;46.64;101312.03;10102069;28;65682;-76
2021/12/19 22:05:58;;;;;;;13.35;5.32;;;;;;;19.24;46.87;101319.75;10100335;28;65635;-72
2021/12/19 22:10:51;;;;;;;18.17;5.25;;;;;;;19.15;47.06;101304.13;10100473;28;66272;-70
2021/12/19 22:15:44;;;;;;;27.55;6.32;;;;;;;19.28;46.81;101295.25;10110142;28;65523;-72
2021/12/19 22:20:39;;;;;;;18.60;5.55;;;;;;;19.31;46.76;101287.28;10091217;28;65635;-72
2021/12/19 22:25:32;;;;;;;24.30;5.25;;;;;;;19.33;46.93;101281.50;10090821;28;65708;-71
2021/12/19 22:30:24;;;;;;;23.10;4.97;;;;;;;19.24;47.02;101292.28;10088919;28;66287;-71
2021/12/19 22:35:16;;;;;;;12.65;5.43;;;;;;;19.42;46.76;101287.19;10103678;28;66404;-71
2021/12/19 22:40:11;;;;;;;11.32;4.03;;;;;;;19.43;46.58;101275.09;10100275;28;66357;-72
2021/12/19 22:45:04;;;;;;;20.38;5.40;;;;;;;19.42;46.79;101277.03;10095971;28;65711;-74
2021/12/19 22:49:56;;;;;;;14.98;4.20;;;;;;;19.48;46.52;101278.69;10104785;28;66405;-70
2021/12/19 22:54:48;;;;;;;12.13;4.75;;;;;;;19.47;46.58;101282.53;10092453;28;66277;-71
2021/12/19 22:59:41;;;;;;;8.60;4.35;;;;;;;19.50;46.39;101281.97;10115339;28;66798;-71
2021/12/19 23:04:34;;;;;;;7.97;4.07;;;;;;;19.46;46.22;101280.03;10092667;28;65516;-69
